sensor_id;sensor_type;location;lat;lon;timestamp;P1;durP1;ratioP1;P2;durP2;ratioP2
40074;SDS011;26529;51.530;11.754;2022-10-20T00:00:05;5.95;;;3.88;;
40074;SDS011;26529;51.530;11.754;2022-10-20T00:02:32;7.88;;;4.53;;
40074;SDS011;26529;51.530;11.754;2022-10-20T00:04:57;6.70;;;3.88;;
40074;SDS011;26529;51.530;11.754;2022-10-20T00:07:23;4.88;;;3.67;;
40074;SDS011;26529;51.530;11.754;2022-10-20T00:09:48;8.73;;;3.95;;
40074;SDS011;26529;51.530;11.754;2022-10-20T00:12:14;7.20;;;4.20;;
40074;SDS011;26529;51.530;11.754;2022-10-20T00:14:39;6.30;;;3.97;;
40074;SDS011;26529;51.530;11.754;2022-10-20T00:17:05;6.70;;;4.00;;
40074;SDS011;26529;51.530;11.754;2022-10-20T00:19:31;5.63;;;3.75;;
40074;SDS011;26529;51.530;11.754;2022-10-20T00:21:57;8.70;;;4.15;;
40074;SDS011;26529;51.530;11.754;2022-10-20T00:24:23;6.13;;;3.65;;
40074;SDS011;26529;51.530;11.754;2022-10-20T00:26:49;5.85;;;3.50;;
40074;SDS011;26529;51.530;11.754;2022-10-20T00:29:15;6.25;;;3.13;;
40074;SDS011;26529;51.530;11.754;2022-10-20T00:31:41;6.13;;;4.00;;
40074;SDS011;26529;51.530;11.754;2022-10-20T00:34:07;4.32;;;3.13;;
40074;SDS011;26529;51.530;11.754;2022-10-20T00:36:32;4.97;;;3.17;;
40074;SDS011;26529;51.530;11.754;2022-10-20T00:38:58;3.80;;;2.97;;
40074;SDS011;26529;51.530;11.754;2022-10-20T00:41:25;5.05;;;3.08;;
40074;SDS011;26529;51.530;11.754;2022-10-20T00:43:59;6.28;;;3.50;;
40074;SDS011;26529;51.530;11.754;2022-10-20T00:48:57;4.72;;;2.78;;
40074;SDS011;26529;51.530;11.754;2022-10-20T00:51:27;5.45;;;2.83;;
40074;SDS011;26529;51.530;11.754;2022-10-20T00:53:57;5.78;;;3.58;;
40074;SDS011;26529;51.530;11.754;2022-10-20T00:56:30;5.03;;;3.28;;
40074;SDS011;26529;51.530;11.754;2022-10-20T00:58:57;5.57;;;2.95;;
40074;SDS011;26529;51.530;11.754;2022-10-20T01:01:24;4.35;;;2.83;;
40074;SDS011;26529;51.530;11.754;2022-10-20T01:03:49;4.68;;;3.05;;
40074;SDS011;26529;51.530;11.754;2022-10-20T01:06:17;6.03;;;2.92;;
40074;SDS011;26529;51.530;11.754;2022-10-20T01:08:44;5.50;;;3.00;;
40074;SDS011;26529;51.530;11.754;2022-10-20T01:11:14;4.18;;;2.50;;
40074;SDS011;26529;51.530;11.754;2022-10-20T01:25:25;5.75;;;2.50;;
40074;SDS011;26529;51.530;11.754;2022-10-20T01:27:57;3.90;;;2.53;;
40074;SDS011;26529;51.530;11.754;2022-10-20T01:30:30;4.35;;;2.65;;
40074;SDS011;26529;51.530;11.754;2022-10-20T01:35:39;3.90;;;2.38;;
40074;SDS011;26529;51.530;11.754;2022-10-20T01:41:07;3.45;;;2.47;;
40074;SDS011;26529;51.530;11.754;2022-10-20T01:43:38;4.38;;;2.35;;
40074;SDS011;26529;51.530;11.754;2022-10-20T01:46:07;4.45;;;2.70;;
40074;SDS011;26529;51.530;11.754;2022-10-20T01:48:35;3.65;;;2.22;;
40074;SDS011;26529;51.530;11.754;2022-10-20T01:51:04;5.03;;;2.10;;
40074;SDS011;26529;51.530;11.754;2022-10-20T01:53:30;4.00;;;2.65;;
40074;SDS011;26529;51.530;11.754;2022-10-20T01:55:56;4.30;;;2.83;;
40074;SDS011;26529;51.530;11.754;2022-10-20T01:58:46;4.35;;;2.63;;
40074;SDS011;26529;51.530;11.754;2022-10-20T02:01:29;4.10;;;2.42;;
40074;SDS011;26529;51.530;11.754;2022-10-20T02:04:12;3.85;;;2.17;;
40074;SDS011;26529;51.530;11.754;2022-10-20T02:06:42;3.33;;;2.47;;
40074;SDS011;26529;51.530;11.754;2022-10-20T02:09:15;4.43;;;2.10;;
40074;SDS011;26529;51.530;11.754;2022-10-20T02:11:49;4.15;;;1.98;;
40074;SDS011;26529;51.530;11.754;2022-10-20T02:14:20;3.88;;;2.03;;
40074;SDS011;26529;51.530;11.754;2022-10-20T02:16:51;2.67;;;1.90;;
40074;SDS011;26529;51.530;11.754;2022-10-20T02:19:22;3.45;;;2.05;;
40074;SDS011;26529;51.530;11.754;2022-10-20T02:21:53;3.33;;;2.03;;
40074;SDS011;26529;51.530;11.754;2022-10-20T02:24:21;3.42;;;1.90;;
40074;SDS011;26529;51.530;11.754;2022-10-20T02:26:50;3.28;;;2.13;;
40074;SDS011;26529;51.530;11.754;2022-10-20T02:29:22;3.53;;;2.38;;
40074;SDS011;26529;51.530;11.754;2022-10-20T02:31:51;4.18;;;2.35;;
40074;SDS011;26529;51.530;11.754;2022-10-20T02:34:17;3.45;;;2.40;;
40074;SDS011;26529;51.530;11.754;2022-10-20T02:36:43;3.10;;;2.00;;
40074;SDS011;26529;51.530;11.754;2022-10-20T02:39:08;3.38;;;2.10;;
40074;SDS011;26529;51.530;11.754;2022-10-20T02:41:35;2.75;;;2.03;;
40074;SDS011;26529;51.530;11.754;2022-10-20T02:44:00;2.47;;;1.67;;
40074;SDS011;26529;51.530;11.754;2022-10-20T02:46:26;3.38;;;2.00;;
40074;SDS011;26529;51.530;11.754;2022-10-20T02:48:52;2.90;;;1.85;;
40074;SDS011;26529;51.530;11.754;2022-10-20T02:51:17;3.03;;;1.77;;
40074;SDS011;26529;51.530;11.754;2022-10-20T02:53:43;2.10;;;1.80;;
40074;SDS011;26529;51.530;11.754;2022-10-20T02:56:09;4.22;;;1.88;;
40074;SDS011;26529;51.530;11.754;2022-10-20T02:58:35;3.63;;;1.88;;
40074;SDS011;26529;51.530;11.754;2022-10-20T03:01:02;2.65;;;1.83;;
40074;SDS011;26529;51.530;11.754;2022-10-20T03:03:28;2.58;;;1.95;;
40074;SDS011;26529;51.530;11.754;2022-10-20T03:05:53;1.88;;;1.65;;
40074;SDS011;26529;51.530;11.754;2022-10-20T03:08:19;1.70;;;1.50;;
40074;SDS011;26529;51.530;11.754;2022-10-20T03:10:45;3.05;;;1.83;;
40074;SDS011;26529;51.530;11.754;2022-10-20T03:13:10;2.83;;;1.73;;
40074;SDS011;26529;51.530;11.754;2022-10-20T03:15:36;2.55;;;1.70;;
40074;SDS011;26529;51.530;11.754;2022-10-20T03:18:02;2.47;;;1.80;;
40074;SDS011;26529;51.530;11.754;2022-10-20T03:20:28;2.00;;;1.48;;
40074;SDS011;26529;51.530;11.754;2022-10-20T03:22:53;3.25;;;1.80;;
40074;SDS011;26529;51.530;11.754;2022-10-20T03:25:19;2.15;;;1.60;;
40074;SDS011;26529;51.530;11.754;2022-10-20T03:27:49;2.58;;;1.75;;
40074;SDS011;26529;51.530;11.754;2022-10-20T03:30:15;2.65;;;1.50;;
40074;SDS011;26529;51.530;11.754;2022-10-20T03:32:41;2.72;;;1.48;;
40074;SDS011;26529;51.530;11.754;2022-10-20T03:35:06;2.55;;;1.67;;
40074;SDS011;26529;51.530;11.754;2022-10-20T03:37:32;2.85;;;1.70;;
40074;SDS011;26529;51.530;11.754;2022-10-20T03:39:58;2.47;;;1.50;;
40074;SDS011;26529;51.530;11.754;2022-10-20T03:42:23;1.98;;;1.58;;
40074;SDS011;26529;51.530;11.754;2022-10-20T03:44:49;2.05;;;1.25;;
40074;SDS011;26529;51.530;11.754;2022-10-20T03:47:14;2.47;;;1.60;;
40074;SDS011;26529;51.530;11.754;2022-10-20T03:49:40;1.40;;;1.08;;
40074;SDS011;26529;51.530;11.754;2022-10-20T03:52:05;1.90;;;1.42;;
40074;SDS011;26529;51.530;11.754;2022-10-20T03:54:31;1.90;;;1.30;;
40074;SDS011;26529;51.530;11.754;2022-10-20T03:56:56;2.70;;;1.45;;
40074;SDS011;26529;51.530;11.754;2022-10-20T03:59:22;1.73;;;1.33;;
40074;SDS011;26529;51.530;11.754;2022-10-20T04:01:47;1.83;;;1.30;;
40074;SDS011;26529;51.530;11.754;2022-10-20T04:04:13;1.88;;;1.30;;
40074;SDS011;26529;51.530;11.754;2022-10-20T04:06:39;1.90;;;1.63;;
40074;SDS011;26529;51.530;11.754;2022-10-20T04:09:04;1.75;;;1.40;;
40074;SDS011;26529;51.530;11.754;2022-10-20T04:11:30;3.50;;;1.73;;
40074;SDS011;26529;51.530;11.754;2022-10-20T04:13:56;1.58;;;1.38;;
40074;SDS011;26529;51.530;11.754;2022-10-20T04:16:22;1.75;;;1.40;;
40074;SDS011;26529;51.530;11.754;2022-10-20T04:18:50;2.35;;;1.65;;
40074;SDS011;26529;51.530;11.754;2022-10-20T04:21:16;1.70;;;1.30;;
40074;SDS011;26529;51.530;11.754;2022-10-20T04:23:41;1.95;;;1.08;;
40074;SDS011;26529;51.530;11.754;2022-10-20T04:26:10;1.98;;;1.33;;
40074;SDS011;26529;51.530;11.754;2022-10-20T04:28:37;2.25;;;0.93;;
40074;SDS011;26529;51.530;11.754;2022-10-20T04:31:03;2.17;;;1.50;;
40074;SDS011;26529;51.530;11.754;2022-10-20T04:33:29;2.58;;;1.33;;
40074;SDS011;26529;51.530;11.754;2022-10-20T04:35:56;2.40;;;1.52;;
40074;SDS011;26529;51.530;11.754;2022-10-20T04:38:25;1.30;;;1.20;;
40074;SDS011;26529;51.530;11.754;2022-10-20T04:40:54;1.85;;;1.48;;
40074;SDS011;26529;51.530;11.754;2022-10-20T04:43:21;1.80;;;1.60;;
40074;SDS011;26529;51.530;11.754;2022-10-20T04:45:46;2.15;;;1.40;;
40074;SDS011;26529;51.530;11.754;2022-10-20T04:48:12;0.93;;;0.80;;
40074;SDS011;26529;51.530;11.754;2022-10-20T04:50:37;3.35;;;1.58;;
40074;SDS011;26529;51.530;11.754;2022-10-20T04:53:06;1.98;;;1.08;;
40074;SDS011;26529;51.530;11.754;2022-10-20T04:55:35;1.58;;;1.33;;
40074;SDS011;26529;51.530;11.754;2022-10-20T04:58:01;1.58;;;1.17;;
40074;SDS011;26529;51.530;11.754;2022-10-20T05:00:26;1.92;;;1.23;;
40074;SDS011;26529;51.530;11.754;2022-10-20T05:02:52;1.27;;;0.98;;
40074;SDS011;26529;51.530;11.754;2022-10-20T05:05:19;1.15;;;0.98;;
40074;SDS011;26529;51.530;11.754;2022-10-20T05:07:44;1.63;;;1.08;;
40074;SDS011;26529;51.530;11.754;2022-10-20T05:10:10;1.58;;;1.08;;
40074;SDS011;26529;51.530;11.754;2022-10-20T05:12:35;1.10;;;0.77;;
40074;SDS011;26529;51.530;11.754;2022-10-20T05:15:01;1.48;;;0.98;;
40074;SDS011;26529;51.530;11.754;2022-10-20T05:17:29;1.90;;;1.20;;
40074;SDS011;26529;51.530;11.754;2022-10-20T05:19:54;1.17;;;1.00;;
40074;SDS011;26529;51.530;11.754;2022-10-20T05:22:20;1.52;;;1.02;;
40074;SDS011;26529;51.530;11.754;2022-10-20T05:24:46;1.48;;;1.17;;
40074;SDS011;26529;51.530;11.754;2022-10-20T05:27:11;1.15;;;1.00;;
40074;SDS011;26529;51.530;11.754;2022-10-20T05:29:37;1.63;;;1.38;;
40074;SDS011;26529;51.530;11.754;2022-10-20T05:32:02;1.15;;;1.02;;
40074;SDS011;26529;51.530;11.754;2022-10-20T05:34:28;0.70;;;0.68;;
40074;SDS011;26529;51.530;11.754;2022-10-20T05:36:53;1.13;;;1.00;;
40074;SDS011;26529;51.530;11.754;2022-10-20T05:39:19;1.15;;;0.82;;
40074;SDS011;26529;51.530;11.754;2022-10-20T05:41:45;1.33;;;1.02;;
40074;SDS011;26529;51.530;11.754;2022-10-20T05:44:11;5.30;;;1.40;;
40074;SDS011;26529;51.530;11.754;2022-10-20T05:46:37;1.85;;;1.27;;
40074;SDS011;26529;51.530;11.754;2022-10-20T05:49:08;2.47;;;1.30;;
40074;SDS011;26529;51.530;11.754;2022-10-20T05:51:38;3.05;;;1.40;;
40074;SDS011;26529;51.530;11.754;2022-10-20T05:54:04;4.20;;;1.40;;
40074;SDS011;26529;51.530;11.754;2022-10-20T05:56:29;2.80;;;1.30;;
40074;SDS011;26529;51.530;11.754;2022-10-20T05:58:56;3.28;;;1.23;;
40074;SDS011;26529;51.530;11.754;2022-10-20T06:01:26;3.00;;;1.40;;
40074;SDS011;26529;51.530;11.754;2022-10-20T06:04:03;2.90;;;1.40;;
40074;SDS011;26529;51.530;11.754;2022-10-20T06:06:30;2.53;;;1.17;;
40074;SDS011;26529;51.530;11.754;2022-10-20T06:08:56;3.42;;;1.35;;
40074;SDS011;26529;51.530;11.754;2022-10-20T06:11:24;2.33;;;1.52;;
40074;SDS011;26529;51.530;11.754;2022-10-20T06:13:50;2.55;;;1.33;;
40074;SDS011;26529;51.530;11.754;2022-10-20T06:16:17;3.20;;;1.60;;
40074;SDS011;26529;51.530;11.754;2022-10-20T06:18:47;2.88;;;1.42;;
40074;SDS011;26529;51.530;11.754;2022-10-20T06:21:16;3.58;;;1.65;;
40074;SDS011;26529;51.530;11.754;2022-10-20T06:23:47;2.28;;;1.38;;
40074;SDS011;26529;51.530;11.754;2022-10-20T06:26:14;2.75;;;1.40;;
40074;SDS011;26529;51.530;11.754;2022-10-20T06:28:42;8.65;;;1.65;;
40074;SDS011;26529;51.530;11.754;2022-10-20T06:31:10;4.30;;;1.77;;
40074;SDS011;26529;51.530;11.754;2022-10-20T06:33:40;5.88;;;1.50;;
40074;SDS011;26529;51.530;11.754;2022-10-20T06:36:06;4.85;;;1.33;;
40074;SDS011;26529;51.530;11.754;2022-10-20T06:38:33;5.00;;;1.70;;
40074;SDS011;26529;51.530;11.754;2022-10-20T06:41:02;3.10;;;1.67;;
40074;SDS011;26529;51.530;11.754;2022-10-20T06:43:31;4.30;;;1.70;;
40074;SDS011;26529;51.530;11.754;2022-10-20T06:45:58;4.25;;;1.60;;
40074;SDS011;26529;51.530;11.754;2022-10-20T06:48:26;2.58;;;1.52;;
40074;SDS011;26529;51.530;11.754;2022-10-20T06:50:56;5.18;;;1.90;;
40074;SDS011;26529;51.530;11.754;2022-10-20T06:53:24;5.53;;;1.98;;
40074;SDS011;26529;51.530;11.754;2022-10-20T06:55:54;3.95;;;1.75;;
40074;SDS011;26529;51.530;11.754;2022-10-20T06:58:21;3.22;;;2.08;;
40074;SDS011;26529;51.530;11.754;2022-10-20T07:00:54;3.25;;;2.20;;
40074;SDS011;26529;51.530;11.754;2022-10-20T07:03:22;5.40;;;2.00;;
40074;SDS011;26529;51.530;11.754;2022-10-20T07:05:48;10.40;;;2.53;;
40074;SDS011;26529;51.530;11.754;2022-10-20T07:08:13;15.40;;;3.13;;
40074;SDS011;26529;51.530;11.754;2022-10-20T07:10:39;8.25;;;2.28;;
40074;SDS011;26529;51.530;11.754;2022-10-20T07:13:04;7.18;;;2.83;;
40074;SDS011;26529;51.530;11.754;2022-10-20T07:15:30;14.63;;;3.40;;
40074;SDS011;26529;51.530;11.754;2022-10-20T07:17:55;4.90;;;2.33;;
40074;SDS011;26529;51.530;11.754;2022-10-20T07:20:21;7.53;;;2.25;;
40074;SDS011;26529;51.530;11.754;2022-10-20T07:22:47;4.93;;;2.03;;
40074;SDS011;26529;51.530;11.754;2022-10-20T07:25:12;4.95;;;1.90;;
40074;SDS011;26529;51.530;11.754;2022-10-20T07:27:38;6.18;;;2.03;;
40074;SDS011;26529;51.530;11.754;2022-10-20T07:30:04;5.00;;;2.38;;
40074;SDS011;26529;51.530;11.754;2022-10-20T07:32:29;6.03;;;2.45;;
40074;SDS011;26529;51.530;11.754;2022-10-20T07:34:55;4.03;;;2.25;;
40074;SDS011;26529;51.530;11.754;2022-10-20T07:37:21;5.45;;;2.45;;
40074;SDS011;26529;51.530;11.754;2022-10-20T07:39:47;9.73;;;2.47;;
40074;SDS011;26529;51.530;11.754;2022-10-20T07:42:12;5.72;;;2.35;;
40074;SDS011;26529;51.530;11.754;2022-10-20T07:44:38;3.58;;;1.77;;
40074;SDS011;26529;51.530;11.754;2022-10-20T07:47:03;4.75;;;2.50;;
40074;SDS011;26529;51.530;11.754;2022-10-20T07:49:29;6.40;;;1.73;;
40074;SDS011;26529;51.530;11.754;2022-10-20T07:51:54;3.88;;;2.30;;
40074;SDS011;26529;51.530;11.754;2022-10-20T07:54:20;7.32;;;2.00;;
40074;SDS011;26529;51.530;11.754;2022-10-20T07:56:46;5.97;;;1.98;;
40074;SDS011;26529;51.530;11.754;2022-10-20T07:59:13;8.25;;;2.22;;
40074;SDS011;26529;51.530;11.754;2022-10-20T08:01:39;3.55;;;2.28;;
40074;SDS011;26529;51.530;11.754;2022-10-20T08:04:05;7.30;;;1.80;;
40074;SDS011;26529;51.530;11.754;2022-10-20T08:06:31;7.10;;;2.20;;
40074;SDS011;26529;51.530;11.754;2022-10-20T08:08:57;8.82;;;2.88;;
40074;SDS011;26529;51.530;11.754;2022-10-20T08:11:22;5.03;;;1.98;;
40074;SDS011;26529;51.530;11.754;2022-10-20T08:13:48;9.05;;;1.98;;
40074;SDS011;26529;51.530;11.754;2022-10-20T08:16:14;7.82;;;1.98;;
40074;SDS011;26529;51.530;11.754;2022-10-20T08:18:40;8.40;;;2.53;;
40074;SDS011;26529;51.530;11.754;2022-10-20T08:21:07;11.15;;;2.90;;
40074;SDS011;26529;51.530;11.754;2022-10-20T08:23:41;7.57;;;2.40;;
40074;SDS011;26529;51.530;11.754;2022-10-20T08:26:09;13.68;;;2.78;;
40074;SDS011;26529;51.530;11.754;2022-10-20T08:28:35;9.35;;;2.55;;
40074;SDS011;26529;51.530;11.754;2022-10-20T08:31:04;8.23;;;1.98;;
40074;SDS011;26529;51.530;11.754;2022-10-20T08:33:31;9.23;;;2.58;;
40074;SDS011;26529;51.530;11.754;2022-10-20T08:36:04;9.52;;;2.15;;
40074;SDS011;26529;51.530;11.754;2022-10-20T08:38:32;8.48;;;2.40;;
40074;SDS011;26529;51.530;11.754;2022-10-20T08:40:58;5.95;;;2.30;;
40074;SDS011;26529;51.530;11.754;2022-10-20T08:43:25;14.45;;;2.65;;
40074;SDS011;26529;51.530;11.754;2022-10-20T08:45:52;10.25;;;2.92;;
40074;SDS011;26529;51.530;11.754;2022-10-20T08:48:19;9.32;;;2.67;;
40074;SDS011;26529;51.530;11.754;2022-10-20T08:50:48;7.97;;;2.15;;
40074;SDS011;26529;51.530;11.754;2022-10-20T08:53:16;4.03;;;1.85;;
40074;SDS011;26529;51.530;11.754;2022-10-20T08:55:44;8.07;;;2.13;;
40074;SDS011;26529;51.530;11.754;2022-10-20T08:58:11;7.57;;;2.53;;
40074;SDS011;26529;51.530;11.754;2022-10-20T09:00:39;8.80;;;2.78;;
40074;SDS011;26529;51.530;11.754;2022-10-20T09:03:21;6.63;;;2.20;;
40074;SDS011;26529;51.530;11.754;2022-10-20T09:05:56;7.55;;;2.20;;
40074;SDS011;26529;51.530;11.754;2022-10-20T09:08:28;5.45;;;1.83;;
40074;SDS011;26529;51.530;11.754;2022-10-20T09:10:55;9.65;;;2.22;;
40074;SDS011;26529;51.530;11.754;2022-10-20T09:15:50;6.25;;;2.00;;
40074;SDS011;26529;51.530;11.754;2022-10-20T09:18:18;7.03;;;2.05;;
40074;SDS011;26529;51.530;11.754;2022-10-20T09:20:50;5.30;;;2.00;;
40074;SDS011;26529;51.530;11.754;2022-10-20T09:23:19;5.40;;;1.73;;
40074;SDS011;26529;51.530;11.754;2022-10-20T09:25:48;6.13;;;2.10;;
40074;SDS011;26529;51.530;11.754;2022-10-20T09:28:16;2.97;;;1.63;;
40074;SDS011;26529;51.530;11.754;2022-10-20T09:30:49;5.22;;;1.58;;
40074;SDS011;26529;51.530;11.754;2022-10-20T09:33:29;5.43;;;2.00;;
40074;SDS011;26529;51.530;11.754;2022-10-20T09:36:09;4.00;;;1.70;;
40074;SDS011;26529;51.530;11.754;2022-10-20T09:38:40;3.95;;;2.00;;
40074;SDS011;26529;51.530;11.754;2022-10-20T09:41:11;7.00;;;2.22;;
40074;SDS011;26529;51.530;11.754;2022-10-20T09:43:50;3.45;;;1.67;;
40074;SDS011;26529;51.530;11.754;2022-10-20T09:46:24;4.68;;;1.55;;
40074;SDS011;26529;51.530;11.754;2022-10-20T09:48:52;4.85;;;1.90;;
40074;SDS011;26529;51.530;11.754;2022-10-20T09:51:26;5.50;;;1.92;;
40074;SDS011;26529;51.530;11.754;2022-10-20T09:56:27;7.45;;;2.00;;
40074;SDS011;26529;51.530;11.754;2022-10-20T09:58:55;3.85;;;1.60;;
40074;SDS011;26529;51.530;11.754;2022-10-20T10:01:22;2.05;;;1.30;;
40074;SDS011;26529;51.530;11.754;2022-10-20T10:03:49;3.38;;;1.73;;
40074;SDS011;26529;51.530;11.754;2022-10-20T10:08:58;4.75;;;1.48;;
40074;SDS011;26529;51.530;11.754;2022-10-20T10:11:35;3.55;;;1.63;;
40074;SDS011;26529;51.530;11.754;2022-10-20T10:14:01;3.53;;;1.48;;
40074;SDS011;26529;51.530;11.754;2022-10-20T10:16:27;4.22;;;2.00;;
40074;SDS011;26529;51.530;11.754;2022-10-20T10:19:05;6.07;;;1.33;;
40074;SDS011;26529;51.530;11.754;2022-10-20T10:21:47;4.35;;;1.80;;
40074;SDS011;26529;51.530;11.754;2022-10-20T10:24:27;4.13;;;1.83;;
40074;SDS011;26529;51.530;11.754;2022-10-20T10:26:54;2.97;;;1.80;;
40074;SDS011;26529;51.530;11.754;2022-10-20T10:29:28;3.95;;;1.65;;
40074;SDS011;26529;51.530;11.754;2022-10-20T10:32:01;3.45;;;1.50;;
40074;SDS011;26529;51.530;11.754;2022-10-20T10:37:08;5.35;;;1.45;;
40074;SDS011;26529;51.530;11.754;2022-10-20T10:39:36;3.20;;;1.83;;
40074;SDS011;26529;51.530;11.754;2022-10-20T10:42:05;1.95;;;1.10;;
40074;SDS011;26529;51.530;11.754;2022-10-20T10:50:29;2.38;;;0.90;;
40074;SDS011;26529;51.530;11.754;2022-10-20T10:58:56;2.55;;;1.10;;
40074;SDS011;26529;51.530;11.754;2022-10-20T11:07:03;4.30;;;1.50;;
40074;SDS011;26529;51.530;11.754;2022-10-20T11:09:34;1.73;;;1.10;;
40074;SDS011;26529;51.530;11.754;2022-10-20T11:14:59;2.03;;;1.58;;
40074;SDS011;26529;51.530;11.754;2022-10-20T11:20:47;2.25;;;1.27;;
40074;SDS011;26529;51.530;11.754;2022-10-20T11:28:20;2.40;;;1.17;;
40074;SDS011;26529;51.530;11.754;2022-10-20T11:30:51;1.95;;;1.27;;
40074;SDS011;26529;51.530;11.754;2022-10-20T11:33:21;1.58;;;1.10;;
40074;SDS011;26529;51.530;11.754;2022-10-20T11:36:08;1.10;;;0.82;;
40074;SDS011;26529;51.530;11.754;2022-10-20T11:38:50;3.63;;;1.10;;
40074;SDS011;26529;51.530;11.754;2022-10-20T11:41:38;3.33;;;1.35;;
40074;SDS011;26529;51.530;11.754;2022-10-20T11:44:12;3.05;;;1.00;;
40074;SDS011;26529;51.530;11.754;2022-10-20T11:46:52;2.33;;;0.98;;
40074;SDS011;26529;51.530;11.754;2022-10-20T11:49:21;2.03;;;1.10;;
40074;SDS011;26529;51.530;11.754;2022-10-20T12:00:19;2.13;;;1.23;;
40074;SDS011;26529;51.530;11.754;2022-10-20T12:19:22;2.60;;;1.10;;
40074;SDS011;26529;51.530;11.754;2022-10-20T12:24:39;1.10;;;0.90;;
40074;SDS011;26529;51.530;11.754;2022-10-20T12:37:35;1.83;;;0.80;;
40074;SDS011;26529;51.530;11.754;2022-10-20T12:42:32;1.67;;;0.93;;
40074;SDS011;26529;51.530;11.754;2022-10-20T12:47:29;0.80;;;0.80;;
40074;SDS011;26529;51.530;11.754;2022-10-20T12:52:53;1.38;;;0.70;;
40074;SDS011;26529;51.530;11.754;2022-10-20T12:55:29;2.13;;;0.82;;
40074;SDS011;26529;51.530;11.754;2022-10-20T13:09:08;1.55;;;1.00;;
40074;SDS011;26529;51.530;11.754;2022-10-20T13:11:55;1.77;;;0.90;;
40074;SDS011;26529;51.530;11.754;2022-10-20T13:14:43;1.65;;;0.90;;
40074;SDS011;26529;51.530;11.754;2022-10-20T13:17:25;1.80;;;0.80;;
40074;SDS011;26529;51.530;11.754;2022-10-20T13:20:00;1.67;;;0.90;;
40074;SDS011;26529;51.530;11.754;2022-10-20T13:22:39;2.63;;;0.98;;
40074;SDS011;26529;51.530;11.754;2022-10-20T13:25:12;1.10;;;0.70;;
40074;SDS011;26529;51.530;11.754;2022-10-20T13:27:42;1.30;;;0.95;;
40074;SDS011;26529;51.530;11.754;2022-10-20T13:30:19;2.20;;;1.30;;
40074;SDS011;26529;51.530;11.754;2022-10-20T13:32:49;2.55;;;0.98;;
40074;SDS011;26529;51.530;11.754;2022-10-20T13:37:54;1.13;;;0.80;;
40074;SDS011;26529;51.530;11.754;2022-10-20T13:54:35;0.95;;;0.85;;
40074;SDS011;26529;51.530;11.754;2022-10-20T13:57:14;1.40;;;0.90;;
40074;SDS011;26529;51.530;11.754;2022-10-20T14:00:02;0.70;;;0.70;;
40074;SDS011;26529;51.530;11.754;2022-10-20T14:02:32;1.00;;;0.77;;
40074;SDS011;26529;51.530;11.754;2022-10-20T14:05:03;2.20;;;1.08;;
40074;SDS011;26529;51.530;11.754;2022-10-20T14:07:35;1.38;;;0.65;;
40074;SDS011;26529;51.530;11.754;2022-10-20T14:10:03;1.13;;;0.70;;
40074;SDS011;26529;51.530;11.754;2022-10-20T14:12:29;2.47;;;0.70;;
40074;SDS011;26529;51.530;11.754;2022-10-20T14:14:56;1.20;;;0.60;;
40074;SDS011;26529;51.530;11.754;2022-10-20T14:17:23;2.20;;;1.05;;
40074;SDS011;26529;51.530;11.754;2022-10-20T14:19:50;1.35;;;0.93;;
40074;SDS011;26529;51.530;11.754;2022-10-20T14:22:53;1.20;;;0.80;;
40074;SDS011;26529;51.530;11.754;2022-10-20T14:25:21;1.58;;;0.90;;
40074;SDS011;26529;51.530;11.754;2022-10-20T14:27:47;3.38;;;1.17;;
40074;SDS011;26529;51.530;11.754;2022-10-20T14:30:16;4.03;;;0.98;;
40074;SDS011;26529;51.530;11.754;2022-10-20T14:32:43;2.30;;;1.15;;
40074;SDS011;26529;51.530;11.754;2022-10-20T14:40:29;3.47;;;1.67;;
40074;SDS011;26529;51.530;11.754;2022-10-20T14:42:58;5.90;;;1.38;;
40074;SDS011;26529;51.530;11.754;2022-10-20T14:45:29;5.03;;;1.60;;
40074;SDS011;26529;51.530;11.754;2022-10-20T14:47:55;2.88;;;1.10;;
40074;SDS011;26529;51.530;11.754;2022-10-20T14:52:50;6.70;;;1.60;;
40074;SDS011;26529;51.530;11.754;2022-10-20T15:06:38;7.13;;;1.63;;
40074;SDS011;26529;51.530;11.754;2022-10-20T15:09:04;7.07;;;1.05;;
40074;SDS011;26529;51.530;11.754;2022-10-20T15:11:29;9.32;;;1.35;;
40074;SDS011;26529;51.530;11.754;2022-10-20T15:13:56;4.88;;;1.35;;
40074;SDS011;26529;51.530;11.754;2022-10-20T15:16:38;4.97;;;1.15;;
40074;SDS011;26529;51.530;11.754;2022-10-20T15:24:33;6.90;;;1.42;;
40074;SDS011;26529;51.530;11.754;2022-10-20T15:26:59;6.65;;;1.73;;
40074;SDS011;26529;51.530;11.754;2022-10-20T15:29:27;8.63;;;1.65;;
40074;SDS011;26529;51.530;11.754;2022-10-20T15:31:54;4.78;;;1.42;;
40074;SDS011;26529;51.530;11.754;2022-10-20T15:34:20;5.97;;;1.55;;
40074;SDS011;26529;51.530;11.754;2022-10-20T15:36:45;5.78;;;1.35;;
40074;SDS011;26529;51.530;11.754;2022-10-20T15:39:12;8.68;;;1.55;;
40074;SDS011;26529;51.530;11.754;2022-10-20T15:41:37;6.88;;;1.52;;
40074;SDS011;26529;51.530;11.754;2022-10-20T15:44:14;5.72;;;1.60;;
40074;SDS011;26529;51.530;11.754;2022-10-20T15:46:41;6.57;;;1.60;;
40074;SDS011;26529;51.530;11.754;2022-10-20T15:49:09;15.40;;;2.22;;
40074;SDS011;26529;51.530;11.754;2022-10-20T15:51:35;10.18;;;1.88;;
40074;SDS011;26529;51.530;11.754;2022-10-20T15:54:02;5.28;;;1.75;;
40074;SDS011;26529;51.530;11.754;2022-10-20T15:56:28;7.25;;;1.60;;
40074;SDS011;26529;51.530;11.754;2022-10-20T15:58:54;7.60;;;1.90;;
40074;SDS011;26529;51.530;11.754;2022-10-20T16:01:20;8.93;;;1.52;;
40074;SDS011;26529;51.530;11.754;2022-10-20T16:03:46;4.90;;;2.05;;
40074;SDS011;26529;51.530;11.754;2022-10-20T16:06:13;4.22;;;1.23;;
40074;SDS011;26529;51.530;11.754;2022-10-20T16:08:40;8.85;;;6.22;;
40074;SDS011;26529;51.530;11.754;2022-10-20T16:11:07;10.93;;;6.55;;
40074;SDS011;26529;51.530;11.754;2022-10-20T16:13:33;14.45;;;6.88;;
40074;SDS011;26529;51.530;11.754;2022-10-20T16:16:00;13.38;;;6.47;;
40074;SDS011;26529;51.530;11.754;2022-10-20T16:18:26;12.10;;;6.90;;
40074;SDS011;26529;51.530;11.754;2022-10-20T16:20:52;8.80;;;3.80;;
40074;SDS011;26529;51.530;11.754;2022-10-20T16:23:18;7.55;;;4.63;;
40074;SDS011;26529;51.530;11.754;2022-10-20T16:25:43;9.75;;;3.45;;
40074;SDS011;26529;51.530;11.754;2022-10-20T16:28:09;5.50;;;3.38;;
40074;SDS011;26529;51.530;11.754;2022-10-20T16:30:35;8.77;;;3.40;;
40074;SDS011;26529;51.530;11.754;2022-10-20T16:33:00;9.30;;;3.35;;
40074;SDS011;26529;51.530;11.754;2022-10-20T16:35:26;9.18;;;3.40;;
40074;SDS011;26529;51.530;11.754;2022-10-20T16:37:52;7.25;;;3.90;;
40074;SDS011;26529;51.530;11.754;2022-10-20T16:40:17;11.18;;;3.53;;
40074;SDS011;26529;51.530;11.754;2022-10-20T16:42:43;15.95;;;3.55;;
40074;SDS011;26529;51.530;11.754;2022-10-20T16:45:09;13.13;;;3.40;;
40074;SDS011;26529;51.530;11.754;2022-10-20T16:47:35;16.40;;;3.88;;
40074;SDS011;26529;51.530;11.754;2022-10-20T16:50:00;11.07;;;3.85;;
40074;SDS011;26529;51.530;11.754;2022-10-20T16:52:26;9.73;;;3.42;;
40074;SDS011;26529;51.530;11.754;2022-10-20T16:54:51;11.13;;;3.17;;
40074;SDS011;26529;51.530;11.754;2022-10-20T16:57:17;8.48;;;3.05;;
40074;SDS011;26529;51.530;11.754;2022-10-20T16:59:43;7.05;;;3.30;;
40074;SDS011;26529;51.530;11.754;2022-10-20T17:02:14;8.63;;;3.00;;
40074;SDS011;26529;51.530;11.754;2022-10-20T17:04:40;7.43;;;2.42;;
40074;SDS011;26529;51.530;11.754;2022-10-20T17:07:06;6.03;;;2.58;;
40074;SDS011;26529;51.530;11.754;2022-10-20T17:09:35;12.35;;;3.38;;
40074;SDS011;26529;51.530;11.754;2022-10-20T17:12:00;10.52;;;2.90;;
40074;SDS011;26529;51.530;11.754;2022-10-20T17:14:26;7.40;;;2.67;;
40074;SDS011;26529;51.530;11.754;2022-10-20T17:16:52;8.52;;;3.05;;